createdAt,value
2022-12-03T00:00:56.383Z,14.43
2022-12-03T00:03:25.384Z,14.00
2022-12-03T00:05:54.209Z,14.80
2022-12-03T00:08:22.987Z,13.73
2022-12-03T00:10:51.646Z,12.13
2022-12-03T00:13:20.386Z,12.60
2022-12-03T00:15:55.162Z,12.57
2022-12-03T00:18:23.897Z,12.47
2022-12-03T00:20:52.624Z,12.47
2022-12-03T00:23:21.327Z,12.33
2022-12-03T00:25:50.562Z,12.90
2022-12-03T00:28:19.267Z,12.60
2022-12-03T00:30:48.134Z,12.77
2022-12-03T00:33:16.807Z,12.07
2022-12-03T00:35:46.860Z,11.93
2022-12-03T00:38:16.367Z,11.93
2022-12-03T00:40:45.272Z,11.60
2022-12-03T00:43:14.237Z,11.57
2022-12-03T00:45:43.179Z,11.90
2022-12-03T00:48:11.815Z,10.47
2022-12-03T00:50:40.608Z,10.37
2022-12-03T00:53:09.267Z,10.27
2022-12-03T00:55:38.134Z,10.67
2022-12-03T00:58:08.597Z,10.07
2022-12-03T01:00:37.926Z,10.60
2022-12-03T01:03:06.777Z,10.77
2022-12-03T01:05:35.435Z,9.63
2022-12-03T01:08:04.452Z,10.90
2022-12-03T01:10:33.128Z,10.37
2022-12-03T01:13:03.305Z,10.97
2022-12-03T01:15:31.991Z,9.97
2022-12-03T01:18:00.703Z,10.53
2022-12-03T01:20:29.481Z,10.33
2022-12-03T01:22:58.155Z,10.73
2022-12-03T01:25:26.748Z,10.90
2022-12-03T01:27:55.456Z,10.70
2022-12-03T01:30:24.128Z,10.53
2022-12-03T01:32:52.871Z,10.07
2022-12-03T01:35:21.577Z,10.80
2022-12-03T01:37:50.245Z,11.03
2022-12-03T01:40:20.807Z,10.43
2022-12-03T01:42:49.467Z,11.77
2022-12-03T01:45:21.142Z,10.60
2022-12-03T01:47:49.837Z,10.73
2022-12-03T01:50:24.548Z,10.63
2022-12-03T01:52:56.492Z,11.40
2022-12-03T01:55:27.269Z,12.00
2022-12-03T01:57:58.876Z,11.57
2022-12-03T02:00:29.213Z,11.77
2022-12-03T02:03:07.101Z,11.07
2022-12-03T02:05:35.971Z,10.37
2022-12-03T02:08:24.147Z,10.27
2022-12-03T02:10:52.880Z,10.03
2022-12-03T02:13:22.206Z,11.03
2022-12-03T02:15:51.120Z,10.73
2022-12-03T02:18:20.183Z,10.17
2022-12-03T02:20:51.804Z,10.27
2022-12-03T02:23:29.144Z,9.80
2022-12-03T02:25:57.808Z,10.03
2022-12-03T02:28:26.679Z,10.73
2022-12-03T02:30:55.386Z,9.30
2022-12-03T02:33:24.062Z,9.57
2022-12-03T02:35:52.771Z,9.60
2022-12-03T02:38:27.042Z,9.97
2022-12-03T02:40:59.205Z,9.47
2022-12-03T02:43:27.951Z,10.30
2022-12-03T02:45:59.850Z,9.97
2022-12-03T02:48:34.312Z,10.07
2022-12-03T02:51:09.381Z,9.50
2022-12-03T02:53:42.549Z,11.40
2022-12-03T02:56:14.457Z,10.73
2022-12-03T02:58:44.956Z,10.67
2022-12-03T03:01:15.749Z,10.17
2022-12-03T03:03:47.614Z,9.80
2022-12-03T03:06:16.949Z,10.47
2022-12-03T03:08:46.096Z,9.67
2022-12-03T03:11:14.892Z,10.03
2022-12-03T03:13:43.975Z,9.93
2022-12-03T03:16:13.006Z,10.20
2022-12-03T03:18:42.244Z,10.00
2022-12-03T03:21:10.997Z,11.03
2022-12-03T03:23:39.654Z,10.90
2022-12-03T03:26:11.034Z,13.10
2022-12-03T03:28:43.162Z,10.90
2022-12-03T03:31:14.636Z,10.47
2022-12-03T03:33:46.561Z,10.53
2022-12-03T03:36:16.473Z,10.97
2022-12-03T03:38:45.223Z,11.73
2022-12-03T03:41:15.440Z,12.03
2022-12-03T03:43:45.910Z,12.63
2022-12-03T03:46:15.522Z,12.03
2022-12-03T03:48:45.019Z,11.20
2022-12-03T03:51:14.498Z,12.90
2022-12-03T03:53:50.948Z,11.83
2022-12-03T03:56:22.334Z,12.10
2022-12-03T03:58:51.020Z,13.00
2022-12-03T04:01:20.114Z,12.70
2022-12-03T04:03:48.881Z,12.60
2022-12-03T04:06:18.602Z,11.40
2022-12-03T04:08:47.243Z,11.77
2022-12-03T04:11:33.812Z,12.30
2022-12-03T04:14:02.452Z,11.90
2022-12-03T04:16:31.207Z,11.80
2022-12-03T04:19:01.157Z,11.63
2022-12-03T04:21:37.249Z,11.83
2022-12-03T04:24:07.725Z,12.20
2022-12-03T04:26:54.862Z,11.47
2022-12-03T04:29:23.658Z,11.27
2022-12-03T04:32:10.658Z,11.90
2022-12-03T04:34:57.136Z,10.77
2022-12-03T04:37:25.903Z,10.40
2022-12-03T04:39:54.611Z,10.07
2022-12-03T04:42:23.765Z,10.20
2022-12-03T04:44:52.849Z,10.10
2022-12-03T04:47:23.177Z,10.17
2022-12-03T04:49:53.096Z,9.10
2022-12-03T04:52:26.333Z,9.97
2022-12-03T04:54:56.261Z,9.83
2022-12-03T04:57:25.522Z,9.50
2022-12-03T04:59:54.143Z,10.27
2022-12-03T05:02:25.682Z,10.13
2022-12-03T05:04:54.736Z,10.30
2022-12-03T05:07:23.695Z,9.97
2022-12-03T05:09:55.061Z,10.03
2022-12-03T05:12:27.790Z,9.03
2022-12-03T05:14:56.744Z,9.00
2022-12-03T05:17:27.175Z,9.23
2022-12-03T05:20:15.290Z,9.33
2022-12-03T05:22:43.963Z,8.37
2022-12-03T05:25:12.701Z,8.87
2022-12-03T05:27:41.450Z,9.30
2022-12-03T05:30:10.917Z,9.53
2022-12-03T05:32:39.628Z,9.53
2022-12-03T05:35:08.557Z,9.93
2022-12-03T05:37:37.370Z,9.77
2022-12-03T05:40:08.223Z,12.27
2022-12-03T05:42:56.390Z,9.70
2022-12-03T05:45:26.755Z,8.50
2022-12-03T05:47:56.726Z,8.23
2022-12-03T05:50:28.260Z,8.53
2022-12-03T05:52:58.135Z,7.73
2022-12-03T05:55:28.360Z,7.80
2022-12-03T05:57:57.780Z,7.70
2022-12-03T06:00:29.397Z,8.27
2022-12-03T06:02:59.251Z,7.67
2022-12-03T06:05:29.406Z,8.03
2022-12-03T06:07:58.455Z,7.83
2022-12-03T06:10:30.601Z,7.23
2022-12-03T06:12:59.401Z,7.50
2022-12-03T06:15:29.496Z,7.50
2022-12-03T06:17:59.672Z,6.33
2022-12-03T06:20:28.321Z,7.53
2022-12-03T06:22:56.958Z,7.70
2022-12-03T06:25:25.752Z,11.60
2022-12-03T06:27:55.989Z,7.53
2022-12-03T06:30:24.691Z,10.00
2022-12-03T06:32:53.363Z,7.70
2022-12-03T06:35:22.254Z,7.13
2022-12-03T06:37:50.972Z,7.00
2022-12-03T06:40:21.759Z,6.20
2022-12-03T06:42:54.263Z,6.37
2022-12-03T06:45:22.962Z,6.53
2022-12-03T06:47:51.821Z,6.70
2022-12-03T06:50:22.260Z,6.30
2022-12-03T06:52:50.825Z,6.50
2022-12-03T06:55:19.631Z,6.73
2022-12-03T06:57:48.365Z,6.57
2022-12-03T07:00:17.352Z,6.40
2022-12-03T07:02:46.035Z,6.10
2022-12-03T07:05:15.106Z,6.20
2022-12-03T07:07:43.935Z,5.90
2022-12-03T07:10:14.930Z,6.20
2022-12-03T07:12:44.565Z,6.80
2022-12-03T07:15:14.479Z,6.50
2022-12-03T07:21:11.561Z,6.80
2022-12-03T07:23:40.466Z,6.90
2022-12-03T07:26:15.100Z,6.87
2022-12-03T07:28:44.431Z,7.07
2022-12-03T07:31:13.109Z,7.03
2022-12-03T07:33:42.879Z,7.83
2022-12-03T07:36:11.789Z,6.83
2022-12-03T07:38:44.777Z,6.93
2022-12-03T07:41:13.805Z,6.17
2022-12-03T07:43:44.048Z,6.47
2022-12-03T07:46:15.843Z,7.33
2022-12-03T07:49:28.472Z,7.07
2022-12-03T07:51:57.822Z,7.03
2022-12-03T08:00:37.236Z,7.93
2022-12-03T08:03:17.968Z,6.90
2022-12-03T08:05:43.908Z,6.97
2022-12-03T08:08:12.672Z,7.37
2022-12-03T08:10:44.325Z,7.10
2022-12-03T08:13:22.046Z,6.87
2022-12-03T08:15:58.244Z,6.83
2022-12-03T08:24:26.917Z,6.10
2022-12-03T08:27:47.280Z,6.50
2022-12-03T08:30:37.033Z,8.63
2022-12-03T08:33:39.134Z,7.30
2022-12-03T08:36:12.724Z,7.03
2022-12-03T08:39:01.771Z,7.20
2022-12-03T08:41:39.061Z,7.00
2022-12-03T08:44:35.088Z,7.90
2022-12-03T08:47:13.253Z,8.07
2022-12-03T08:49:51.022Z,7.27
2022-12-03T08:52:34.169Z,7.23
2022-12-03T08:55:06.950Z,7.37
2022-12-03T09:07:22.018Z,7.90
2022-12-03T09:09:50.781Z,8.10
2022-12-03T09:12:28.253Z,7.80
2022-12-03T09:14:58.444Z,7.50
2022-12-03T09:17:35.228Z,10.90
2022-12-03T09:20:15.204Z,9.90
2022-12-03T09:22:59.773Z,9.70
2022-12-03T09:25:28.668Z,8.40
2022-12-03T09:28:01.607Z,8.10
2022-12-03T09:30:36.506Z,8.63
2022-12-03T09:46:44.211Z,8.20
2022-12-03T10:52:45.275Z,9.03
2022-12-03T10:58:50.494Z,9.63
2022-12-03T11:11:12.807Z,8.77
2022-12-03T11:18:38.032Z,10.10
2022-12-03T11:19:46.589Z,8.60
2022-12-03T11:22:27.365Z,8.63
2022-12-03T11:25:29.672Z,7.67
2022-12-03T11:28:35.853Z,8.53
2022-12-03T11:31:08.901Z,8.43
2022-12-03T11:33:59.562Z,8.60
2022-12-03T11:39:20.733Z,9.37
2022-12-03T11:42:40.284Z,9.07
2022-12-03T11:50:40.709Z,8.33
2022-12-03T11:59:09.707Z,8.73
2022-12-03T12:01:44.047Z,8.80
2022-12-03T12:04:32.570Z,8.83
2022-12-03T12:17:43.137Z,9.57
2022-12-03T12:20:16.567Z,9.50
2022-12-03T12:22:46.036Z,10.30
2022-12-03T12:25:32.856Z,9.20
2022-12-03T12:28:06.660Z,10.77
2022-12-03T12:30:35.481Z,9.50
2022-12-03T12:33:13.227Z,10.30
2022-12-03T12:35:45.564Z,10.90
2022-12-03T12:38:22.291Z,11.13
2022-12-03T12:40:51.872Z,12.00
2022-12-03T12:50:33.825Z,13.30
2022-12-03T12:53:26.491Z,11.37
2022-12-03T12:56:02.150Z,13.67
2022-12-03T12:58:38.239Z,14.33
2022-12-03T13:01:16.048Z,13.23
2022-12-03T13:03:44.737Z,13.30
2022-12-03T13:06:17.850Z,13.67
2022-12-03T13:08:54.089Z,12.30
2022-12-03T13:11:32.127Z,12.77
2022-12-03T13:14:06.849Z,13.27
2022-12-03T13:16:39.125Z,14.27
2022-12-03T13:19:16.817Z,13.63
2022-12-03T13:21:46.831Z,13.33
2022-12-03T13:25:08.868Z,23.33
2022-12-03T13:36:45.767Z,18.63
2022-12-03T14:36:17.581Z,14.37
2022-12-03T14:58:52.991Z,19.37
2022-12-03T15:55:17.241Z,15.60
2022-12-03T16:08:04.575Z,16.27
2022-12-03T16:17:09.305Z,17.07
2022-12-03T16:19:57.020Z,16.57
2022-12-03T16:25:33.593Z,14.27
2022-12-03T16:28:05.902Z,15.33
2022-12-03T16:30:43.381Z,14.97
2022-12-03T16:33:22.526Z,15.33
2022-12-03T16:35:47.582Z,16.30
2022-12-03T16:38:16.448Z,16.43
2022-12-03T16:40:45.142Z,18.33
2022-12-03T16:43:15.764Z,18.43
2022-12-03T16:45:58.736Z,17.70
2022-12-03T16:48:45.212Z,17.77
2022-12-03T16:51:57.152Z,17.93
2022-12-03T17:52:32.543Z,18.70
2022-12-03T17:58:54.910Z,18.87
2022-12-03T18:04:39.672Z,22.50
2022-12-03T18:08:14.110Z,26.63
2022-12-03T18:10:31.510Z,38.30
2022-12-03T18:27:10.327Z,19.50
2022-12-03T18:59:34.482Z,17.27
2022-12-03T19:03:00.684Z,15.63
2022-12-03T19:37:28.307Z,15.17
2022-12-03T19:49:17.794Z,15.20
2022-12-03T19:49:25.054Z,15.87
2022-12-03T19:52:06.413Z,15.73
2022-12-03T19:58:01.549Z,17.10
2022-12-03T20:04:21.003Z,17.53
2022-12-03T20:20:26.426Z,16.90
2022-12-03T20:23:05.137Z,17.43
2022-12-03T20:25:40.941Z,17.37
2022-12-03T20:28:12.351Z,22.20
2022-12-03T20:31:11.399Z,24.97
2022-12-03T20:34:23.088Z,17.57
2022-12-03T20:43:22.098Z,13.53
2022-12-03T20:46:02.565Z,14.70
2022-12-03T20:48:24.473Z,15.43
2022-12-03T20:57:53.093Z,14.30
2022-12-03T21:00:47.390Z,13.73
2022-12-03T21:03:19.903Z,15.03
2022-12-03T21:06:02.478Z,15.07
2022-12-03T21:08:41.950Z,14.23
2022-12-03T21:11:24.329Z,15.93
2022-12-03T21:13:54.876Z,16.73
2022-12-03T21:19:32.576Z,17.67
2022-12-03T21:22:04.453Z,55.87
2022-12-03T21:24:51.240Z,21.20
2022-12-03T21:27:21.993Z,24.80
2022-12-03T21:29:54.376Z,20.43
2022-12-03T21:32:52.057Z,18.93
2022-12-03T21:39:00.041Z,19.83
2022-12-03T21:45:14.902Z,46.10
2022-12-03T21:48:06.451Z,89.30
2022-12-03T21:57:01.809Z,53.13
2022-12-03T21:59:47.451Z,19.97
2022-12-03T22:16:04.290Z,29.90
2022-12-03T22:28:44.607Z,26.67
2022-12-03T22:35:07.658Z,56.97
2022-12-03T22:40:56.899Z,24.93
2022-12-03T22:57:11.087Z,14.53
2022-12-03T22:59:39.878Z,13.80
2022-12-03T23:02:10.332Z,14.90
2022-12-03T23:04:38.912Z,14.23
2022-12-03T23:07:09.073Z,13.03
2022-12-03T23:09:45.353Z,12.50
2022-12-03T23:12:23.320Z,12.40
2022-12-03T23:14:59.693Z,11.97
2022-12-03T23:17:34.359Z,11.70
2022-12-03T23:20:03.749Z,12.37
2022-12-03T23:22:32.461Z,11.23
2022-12-03T23:25:01.117Z,12.33
2022-12-03T23:27:34.437Z,12.43
2022-12-03T23:30:05.459Z,11.67
2022-12-03T23:32:48.664Z,11.87
2022-12-03T23:35:18.994Z,11.60
2022-12-03T23:37:49.355Z,11.67
2022-12-03T23:40:20.317Z,12.00
2022-12-03T23:42:59.671Z,11.27
2022-12-03T23:45:28.527Z,11.70
2022-12-03T23:48:03.177Z,11.53
2022-12-03T23:50:31.911Z,10.20
2022-12-03T23:53:03.432Z,10.00
2022-12-03T23:55:32.147Z,10.67
2022-12-03T23:58:00.752Z,10.17
